Sign in

Goboko Update

Goboko is set to continue

The Goboko booking system is to continue under a new operator, a member of one of our longest-subscribed flying clubs

The new and previous operators of the site are working to ensure there will be no interruption to your booking service as the transition takes place. Of course, aircraft booking will continue to be free

Thank you for your continued commitment to Goboko


Aviation weather

METAR KDAB 190953Z 21003KT 9SM FEW065 OVC090 19/18 A2982 RMK AO2 SLP097 T01890178

TAF KDAB 190542Z 1906/2006 VRB04KT P6SM SCT060 BKN100 FM191400 25008KT P6SM VCSH BKN040 BKN200 FM191800 22010KT P6SM VCSH SCT050 BKN120 FM200000 24006KT P6SM SCT060 SCT250

Aviation weather from ADDS. Re-check weather before flight.